sensor_id;sensor_type;location;lat;lon;timestamp;P1;durP1;ratioP1;P2;durP2;ratioP2
55146;SDS011;41039;49.830;23.988;2022-09-24T00:00:15;9.82;;;6.70;;
55146;SDS011;41039;49.830;23.988;2022-09-24T00:02:41;13.43;;;7.70;;
55146;SDS011;41039;49.830;23.988;2022-09-24T00:05:06;11.30;;;6.93;;
55146;SDS011;41039;49.830;23.988;2022-09-24T00:07:31;12.55;;;7.65;;
55146;SDS011;41039;49.830;23.988;2022-09-24T00:09:56;11.55;;;7.32;;
55146;SDS011;41039;49.830;23.988;2022-09-24T00:12:22;10.48;;;7.15;;
55146;SDS011;41039;49.830;23.988;2022-09-24T00:14:47;12.77;;;8.18;;
55146;SDS011;41039;49.830;23.988;2022-09-24T00:17:12;11.20;;;7.28;;
55146;SDS011;41039;49.830;23.988;2022-09-24T00:19:37;13.88;;;8.70;;
55146;SDS011;41039;49.830;23.988;2022-09-24T00:22:03;11.00;;;7.13;;
55146;SDS011;41039;49.830;23.988;2022-09-24T00:24:28;11.85;;;8.15;;
55146;SDS011;41039;49.830;23.988;2022-09-24T00:27:12;10.32;;;7.60;;
55146;SDS011;41039;49.830;23.988;2022-09-24T00:29:37;11.90;;;7.60;;
55146;SDS011;41039;49.830;23.988;2022-09-24T00:32:03;11.18;;;7.82;;
55146;SDS011;41039;49.830;23.988;2022-09-24T00:34:28;10.93;;;7.45;;
55146;SDS011;41039;49.830;23.988;2022-09-24T00:36:54;9.75;;;7.10;;
55146;SDS011;41039;49.830;23.988;2022-09-24T00:39:19;10.70;;;7.85;;
55146;SDS011;41039;49.830;23.988;2022-09-24T00:41:44;13.23;;;8.25;;
55146;SDS011;41039;49.830;23.988;2022-09-24T00:52:26;13.65;;;9.35;;
55146;SDS011;41039;49.830;23.988;2022-09-24T00:54:51;12.77;;;10.15;;
55146;SDS011;41039;49.830;23.988;2022-09-24T00:57:17;13.52;;;10.25;;
55146;SDS011;41039;49.830;23.988;2022-09-24T00:59:43;14.40;;;10.23;;
55146;SDS011;41039;49.830;23.988;2022-09-24T01:02:09;12.70;;;8.90;;
55146;SDS011;41039;49.830;23.988;2022-09-24T01:04:34;12.95;;;9.05;;
55146;SDS011;41039;49.830;23.988;2022-09-24T01:06:59;13.18;;;8.30;;
55146;SDS011;41039;49.830;23.988;2022-09-24T01:09:25;13.88;;;8.77;;
55146;SDS011;41039;49.830;23.988;2022-09-24T01:25:06;11.63;;;7.57;;
55146;SDS011;41039;49.830;23.988;2022-09-24T01:27:48;11.82;;;7.95;;
55146;SDS011;41039;49.830;23.988;2022-09-24T01:30:21;12.85;;;8.27;;
55146;SDS011;41039;49.830;23.988;2022-09-24T01:32:56;12.35;;;7.93;;
55146;SDS011;41039;49.830;23.988;2022-09-24T01:35:26;11.40;;;7.40;;
55146;SDS011;41039;49.830;23.988;2022-09-24T01:37:53;11.45;;;7.20;;
55146;SDS011;41039;49.830;23.988;2022-09-24T01:40:21;11.38;;;7.55;;
55146;SDS011;41039;49.830;23.988;2022-09-24T01:42:48;11.25;;;7.35;;
55146;SDS011;41039;49.830;23.988;2022-09-24T01:45:15;11.75;;;8.70;;
55146;SDS011;41039;49.830;23.988;2022-09-24T01:47:42;11.27;;;8.32;;
55146;SDS011;41039;49.830;23.988;2022-09-24T01:50:08;11.57;;;8.05;;
55146;SDS011;41039;49.830;23.988;2022-09-24T01:52:37;11.90;;;8.25;;
55146;SDS011;41039;49.830;23.988;2022-09-24T01:55:05;11.52;;;7.68;;
55146;SDS011;41039;49.830;23.988;2022-09-24T01:57:37;11.88;;;7.20;;
55146;SDS011;41039;49.830;23.988;2022-09-24T02:00:09;10.05;;;6.78;;
55146;SDS011;41039;49.830;23.988;2022-09-24T02:05:23;12.20;;;7.25;;
55146;SDS011;41039;49.830;23.988;2022-09-24T02:10:16;11.23;;;6.65;;
55146;SDS011;41039;49.830;23.988;2022-09-24T02:12:42;10.15;;;6.53;;
55146;SDS011;41039;49.830;23.988;2022-09-24T02:15:14;11.43;;;6.65;;
55146;SDS011;41039;49.830;23.988;2022-09-24T02:17:42;9.68;;;6.70;;
55146;SDS011;41039;49.830;23.988;2022-09-24T02:20:12;11.65;;;7.38;;
55146;SDS011;41039;49.830;23.988;2022-09-24T02:22:38;11.20;;;6.63;;
55146;SDS011;41039;49.830;23.988;2022-09-24T02:25:05;10.98;;;6.78;;
55146;SDS011;41039;49.830;23.988;2022-09-24T02:27:32;10.65;;;7.05;;
55146;SDS011;41039;49.830;23.988;2022-09-24T02:29:58;8.88;;;5.65;;
55146;SDS011;41039;49.830;23.988;2022-09-24T02:32:24;11.88;;;6.65;;
55146;SDS011;41039;49.830;23.988;2022-09-24T02:34:51;9.77;;;6.25;;
55146;SDS011;41039;49.830;23.988;2022-09-24T02:37:18;11.50;;;6.57;;
55146;SDS011;41039;49.830;23.988;2022-09-24T02:39:46;10.48;;;5.32;;
55146;SDS011;41039;49.830;23.988;2022-09-24T02:42:12;9.85;;;6.35;;
55146;SDS011;41039;49.830;23.988;2022-09-24T02:44:38;7.35;;;5.18;;
55146;SDS011;41039;49.830;23.988;2022-09-24T02:47:04;7.75;;;5.30;;
55146;SDS011;41039;49.830;23.988;2022-09-24T02:49:30;10.77;;;6.60;;
55146;SDS011;41039;49.830;23.988;2022-09-24T02:51:56;10.02;;;6.18;;
55146;SDS011;41039;49.830;23.988;2022-09-24T02:54:21;8.82;;;5.97;;
55146;SDS011;41039;49.830;23.988;2022-09-24T02:56:47;8.05;;;5.68;;
55146;SDS011;41039;49.830;23.988;2022-09-24T02:59:12;10.60;;;6.05;;
55146;SDS011;41039;49.830;23.988;2022-09-24T03:01:37;9.55;;;6.35;;
55146;SDS011;41039;49.830;23.988;2022-09-24T03:04:03;9.70;;;5.68;;
55146;SDS011;41039;49.830;23.988;2022-09-24T03:06:28;12.43;;;6.70;;
55146;SDS011;41039;49.830;23.988;2022-09-24T03:08:54;10.38;;;6.45;;
55146;SDS011;41039;49.830;23.988;2022-09-24T03:11:19;9.90;;;6.30;;
55146;SDS011;41039;49.830;23.988;2022-09-24T03:13:45;10.52;;;6.63;;
55146;SDS011;41039;49.830;23.988;2022-09-24T03:16:11;9.45;;;6.35;;
55146;SDS011;41039;49.830;23.988;2022-09-24T03:18:36;10.82;;;7.00;;
55146;SDS011;41039;49.830;23.988;2022-09-24T03:21:05;11.10;;;7.00;;
55146;SDS011;41039;49.830;23.988;2022-09-24T03:23:32;9.68;;;6.85;;
55146;SDS011;41039;49.830;23.988;2022-09-24T03:25:57;9.48;;;6.45;;
55146;SDS011;41039;49.830;23.988;2022-09-24T03:28:23;13.25;;;7.47;;
55146;SDS011;41039;49.830;23.988;2022-09-24T03:30:48;11.63;;;8.45;;
55146;SDS011;41039;49.830;23.988;2022-09-24T03:35:54;10.40;;;7.82;;
55146;SDS011;41039;49.830;23.988;2022-09-24T03:38:19;12.07;;;8.02;;
55146;SDS011;41039;49.830;23.988;2022-09-24T03:40:44;11.75;;;8.15;;
55146;SDS011;41039;49.830;23.988;2022-09-24T03:43:09;11.55;;;8.02;;
55146;SDS011;41039;49.830;23.988;2022-09-24T03:45:35;11.05;;;7.55;;
55146;SDS011;41039;49.830;23.988;2022-09-24T03:48:01;10.30;;;7.20;;
55146;SDS011;41039;49.830;23.988;2022-09-24T03:50:27;11.60;;;7.00;;
55146;SDS011;41039;49.830;23.988;2022-09-24T03:52:52;10.68;;;6.55;;
55146;SDS011;41039;49.830;23.988;2022-09-24T03:55:17;10.38;;;7.13;;
55146;SDS011;41039;49.830;23.988;2022-09-24T03:57:42;10.50;;;7.22;;
55146;SDS011;41039;49.830;23.988;2022-09-24T04:00:08;10.60;;;7.28;;
55146;SDS011;41039;49.830;23.988;2022-09-24T04:02:33;11.63;;;8.45;;
55146;SDS011;41039;49.830;23.988;2022-09-24T04:04:58;12.98;;;8.98;;
55146;SDS011;41039;49.830;23.988;2022-09-24T04:07:24;12.55;;;7.90;;
55146;SDS011;41039;49.830;23.988;2022-09-24T04:09:49;10.48;;;8.00;;
55146;SDS011;41039;49.830;23.988;2022-09-24T04:12:14;10.15;;;8.07;;
55146;SDS011;41039;49.830;23.988;2022-09-24T04:14:40;11.38;;;7.95;;
55146;SDS011;41039;49.830;23.988;2022-09-24T04:17:05;10.93;;;7.40;;
55146;SDS011;41039;49.830;23.988;2022-09-24T04:19:30;12.15;;;7.28;;
55146;SDS011;41039;49.830;23.988;2022-09-24T04:21:55;9.60;;;7.38;;
55146;SDS011;41039;49.830;23.988;2022-09-24T04:24:21;9.75;;;7.00;;
55146;SDS011;41039;49.830;23.988;2022-09-24T04:26:46;11.07;;;7.72;;
55146;SDS011;41039;49.830;23.988;2022-09-24T04:29:11;9.25;;;6.10;;
55146;SDS011;41039;49.830;23.988;2022-09-24T04:31:37;9.25;;;6.35;;
55146;SDS011;41039;49.830;23.988;2022-09-24T04:34:03;9.77;;;6.35;;
55146;SDS011;41039;49.830;23.988;2022-09-24T04:36:28;9.23;;;6.75;;
55146;SDS011;41039;49.830;23.988;2022-09-24T04:38:54;9.55;;;5.88;;
55146;SDS011;41039;49.830;23.988;2022-09-24T04:41:19;9.20;;;6.38;;
55146;SDS011;41039;49.830;23.988;2022-09-24T04:43:44;9.52;;;6.43;;
55146;SDS011;41039;49.830;23.988;2022-09-24T04:46:10;9.77;;;6.53;;
55146;SDS011;41039;49.830;23.988;2022-09-24T04:48:36;11.02;;;7.18;;
55146;SDS011;41039;49.830;23.988;2022-09-24T04:51:02;9.90;;;6.88;;
55146;SDS011;41039;49.830;23.988;2022-09-24T04:53:30;11.48;;;6.82;;
55146;SDS011;41039;49.830;23.988;2022-09-24T04:55:56;11.30;;;7.13;;
55146;SDS011;41039;49.830;23.988;2022-09-24T04:58:22;9.60;;;6.43;;
55146;SDS011;41039;49.830;23.988;2022-09-24T05:00:47;10.50;;;6.68;;
55146;SDS011;41039;49.830;23.988;2022-09-24T05:03:12;10.27;;;6.93;;
55146;SDS011;41039;49.830;23.988;2022-09-24T05:05:37;11.35;;;6.72;;
55146;SDS011;41039;49.830;23.988;2022-09-24T05:08:03;12.38;;;7.60;;
55146;SDS011;41039;49.830;23.988;2022-09-24T05:10:29;13.18;;;7.90;;
55146;SDS011;41039;49.830;23.988;2022-09-24T05:12:55;10.65;;;7.32;;
55146;SDS011;41039;49.830;23.988;2022-09-24T05:15:20;8.55;;;5.82;;
55146;SDS011;41039;49.830;23.988;2022-09-24T05:17:46;10.15;;;6.72;;
55146;SDS011;41039;49.830;23.988;2022-09-24T05:20:11;11.25;;;7.50;;
55146;SDS011;41039;49.830;23.988;2022-09-24T05:22:40;10.95;;;7.22;;
55146;SDS011;41039;49.830;23.988;2022-09-24T05:28:08;11.35;;;5.70;;
55146;SDS011;41039;49.830;23.988;2022-09-24T05:30:33;10.73;;;7.40;;
55146;SDS011;41039;49.830;23.988;2022-09-24T05:32:59;9.00;;;5.95;;
55146;SDS011;41039;49.830;23.988;2022-09-24T05:35:24;10.63;;;6.75;;
55146;SDS011;41039;49.830;23.988;2022-09-24T05:37:49;15.20;;;6.80;;
55146;SDS011;41039;49.830;23.988;2022-09-24T05:40:17;12.38;;;7.45;;
55146;SDS011;41039;49.830;23.988;2022-09-24T05:45:26;16.17;;;6.17;;
55146;SDS011;41039;49.830;23.988;2022-09-24T05:47:51;12.43;;;6.78;;
55146;SDS011;41039;49.830;23.988;2022-09-24T05:50:16;11.43;;;7.22;;
55146;SDS011;41039;49.830;23.988;2022-09-24T05:52:42;11.18;;;6.90;;
55146;SDS011;41039;49.830;23.988;2022-09-24T05:55:07;11.93;;;7.40;;
55146;SDS011;41039;49.830;23.988;2022-09-24T05:57:34;10.77;;;6.72;;
55146;SDS011;41039;49.830;23.988;2022-09-24T05:59:59;11.88;;;7.18;;
55146;SDS011;41039;49.830;23.988;2022-09-24T06:02:24;11.88;;;7.43;;
55146;SDS011;41039;49.830;23.988;2022-09-24T06:04:49;11.25;;;6.82;;
55146;SDS011;41039;49.830;23.988;2022-09-24T06:07:15;11.57;;;7.22;;
55146;SDS011;41039;49.830;23.988;2022-09-24T06:09:40;13.57;;;8.20;;
55146;SDS011;41039;49.830;23.988;2022-09-24T06:12:08;14.85;;;8.63;;
55146;SDS011;41039;49.830;23.988;2022-09-24T06:14:35;12.77;;;8.90;;
55146;SDS011;41039;49.830;23.988;2022-09-24T06:17:00;11.75;;;7.72;;
55146;SDS011;41039;49.830;23.988;2022-09-24T06:19:25;11.55;;;7.90;;
55146;SDS011;41039;49.830;23.988;2022-09-24T06:21:50;13.77;;;8.15;;
55146;SDS011;41039;49.830;23.988;2022-09-24T06:24:15;12.43;;;7.97;;
55146;SDS011;41039;49.830;23.988;2022-09-24T06:26:41;11.15;;;8.30;;
55146;SDS011;41039;49.830;23.988;2022-09-24T06:29:06;13.13;;;8.43;;
55146;SDS011;41039;49.830;23.988;2022-09-24T06:31:32;13.45;;;7.78;;
55146;SDS011;41039;49.830;23.988;2022-09-24T06:33:58;11.35;;;6.88;;
55146;SDS011;41039;49.830;23.988;2022-09-24T06:36:24;9.32;;;7.07;;
55146;SDS011;41039;49.830;23.988;2022-09-24T06:38:50;9.80;;;6.65;;
55146;SDS011;41039;49.830;23.988;2022-09-24T06:41:15;8.93;;;6.47;;
55146;SDS011;41039;49.830;23.988;2022-09-24T06:43:41;12.27;;;6.82;;
55146;SDS011;41039;49.830;23.988;2022-09-24T06:46:06;10.05;;;6.80;;
55146;SDS011;41039;49.830;23.988;2022-09-24T06:48:31;12.30;;;6.00;;
55146;SDS011;41039;49.830;23.988;2022-09-24T06:50:57;8.52;;;6.50;;
55146;SDS011;41039;49.830;23.988;2022-09-24T06:53:22;9.70;;;6.32;;
55146;SDS011;41039;49.830;23.988;2022-09-24T06:55:47;11.93;;;8.85;;
55146;SDS011;41039;49.830;23.988;2022-09-24T06:58:17;7.90;;;6.07;;
55146;SDS011;41039;49.830;23.988;2022-09-24T07:00:49;8.38;;;5.15;;
55146;SDS011;41039;49.830;23.988;2022-09-24T07:03:14;8.50;;;5.43;;
55146;SDS011;41039;49.830;23.988;2022-09-24T07:05:40;9.40;;;5.70;;
55146;SDS011;41039;49.830;23.988;2022-09-24T07:08:05;11.43;;;6.32;;
55146;SDS011;41039;49.830;23.988;2022-09-24T07:10:30;9.50;;;6.32;;
55146;SDS011;41039;49.830;23.988;2022-09-24T07:12:56;10.93;;;5.55;;
55146;SDS011;41039;49.830;23.988;2022-09-24T07:15:21;10.38;;;5.57;;
55146;SDS011;41039;49.830;23.988;2022-09-24T07:17:46;9.20;;;5.77;;
55146;SDS011;41039;49.830;23.988;2022-09-24T07:20:11;7.78;;;4.90;;
55146;SDS011;41039;49.830;23.988;2022-09-24T07:22:37;10.52;;;5.72;;
55146;SDS011;41039;49.830;23.988;2022-09-24T07:25:05;8.38;;;5.97;;
55146;SDS011;41039;49.830;23.988;2022-09-24T07:27:31;6.82;;;5.25;;
55146;SDS011;41039;49.830;23.988;2022-09-24T07:29:56;7.07;;;5.53;;
55146;SDS011;41039;49.830;23.988;2022-09-24T07:32:22;8.33;;;5.97;;
55146;SDS011;41039;49.830;23.988;2022-09-24T07:34:48;7.68;;;5.43;;
55146;SDS011;41039;49.830;23.988;2022-09-24T07:37:13;13.45;;;6.00;;
55146;SDS011;41039;49.830;23.988;2022-09-24T07:39:38;7.97;;;5.72;;
55146;SDS011;41039;49.830;23.988;2022-09-24T07:42:04;9.60;;;6.07;;
55146;SDS011;41039;49.830;23.988;2022-09-24T07:44:29;9.45;;;5.22;;
55146;SDS011;41039;49.830;23.988;2022-09-24T07:46:54;6.90;;;5.20;;
55146;SDS011;41039;49.830;23.988;2022-09-24T07:49:20;13.10;;;6.00;;
55146;SDS011;41039;49.830;23.988;2022-09-24T07:51:45;12.57;;;5.22;;
55146;SDS011;41039;49.830;23.988;2022-09-24T07:54:10;7.25;;;4.70;;
55146;SDS011;41039;49.830;23.988;2022-09-24T07:56:36;7.47;;;4.72;;
55146;SDS011;41039;49.830;23.988;2022-09-24T07:59:01;7.35;;;5.00;;
55146;SDS011;41039;49.830;23.988;2022-09-24T08:01:26;7.85;;;4.63;;
55146;SDS011;41039;49.830;23.988;2022-09-24T08:03:51;8.10;;;4.60;;
55146;SDS011;41039;49.830;23.988;2022-09-24T08:06:17;5.72;;;4.03;;
55146;SDS011;41039;49.830;23.988;2022-09-24T08:08:43;6.72;;;3.78;;
55146;SDS011;41039;49.830;23.988;2022-09-24T08:11:09;5.53;;;3.92;;
55146;SDS011;41039;49.830;23.988;2022-09-24T08:13:35;9.90;;;4.75;;
55146;SDS011;41039;49.830;23.988;2022-09-24T08:16:01;8.13;;;4.45;;
55146;SDS011;41039;49.830;23.988;2022-09-24T08:18:27;6.40;;;4.10;;
55146;SDS011;41039;49.830;23.988;2022-09-24T08:20:53;7.75;;;4.55;;
55146;SDS011;41039;49.830;23.988;2022-09-24T08:23:18;9.35;;;4.70;;
55146;SDS011;41039;49.830;23.988;2022-09-24T08:25:45;9.00;;;4.28;;
55146;SDS011;41039;49.830;23.988;2022-09-24T08:28:10;8.93;;;4.53;;
55146;SDS011;41039;49.830;23.988;2022-09-24T08:30:36;7.90;;;4.70;;
55146;SDS011;41039;49.830;23.988;2022-09-24T08:33:01;6.10;;;3.67;;
55146;SDS011;41039;49.830;23.988;2022-09-24T08:35:28;7.15;;;4.40;;
55146;SDS011;41039;49.830;23.988;2022-09-24T08:37:54;7.10;;;3.92;;
55146;SDS011;41039;49.830;23.988;2022-09-24T08:40:21;4.70;;;3.22;;
55146;SDS011;41039;49.830;23.988;2022-09-24T08:45:18;4.95;;;3.22;;
55146;SDS011;41039;49.830;23.988;2022-09-24T08:50:33;7.55;;;3.40;;
55146;SDS011;41039;49.830;23.988;2022-09-24T09:00:26;4.80;;;3.40;;
55146;SDS011;41039;49.830;23.988;2022-09-24T09:05:23;7.43;;;3.22;;
55146;SDS011;41039;49.830;23.988;2022-09-24T09:10:23;4.63;;;3.22;;
55146;SDS011;41039;49.830;23.988;2022-09-24T09:12:54;4.93;;;3.53;;
55146;SDS011;41039;49.830;23.988;2022-09-24T09:15:23;7.38;;;3.50;;
55146;SDS011;41039;49.830;23.988;2022-09-24T09:17:53;6.47;;;3.05;;
55146;SDS011;41039;49.830;23.988;2022-09-24T09:20:28;7.07;;;2.92;;
55146;SDS011;41039;49.830;23.988;2022-09-24T09:22:54;4.10;;;2.30;;
55146;SDS011;41039;49.830;23.988;2022-09-24T09:25:22;5.97;;;3.03;;
55146;SDS011;41039;49.830;23.988;2022-09-24T09:27:59;3.92;;;2.15;;
55146;SDS011;41039;49.830;23.988;2022-09-24T09:30:25;3.80;;;2.60;;
55146;SDS011;41039;49.830;23.988;2022-09-24T09:42:58;4.53;;;1.90;;
55146;SDS011;41039;49.830;23.988;2022-09-24T09:48:16;6.90;;;2.53;;
55146;SDS011;41039;49.830;23.988;2022-09-24T09:50:48;6.20;;;1.90;;
55146;SDS011;41039;49.830;23.988;2022-09-24T09:53:32;3.78;;;2.05;;
55146;SDS011;41039;49.830;23.988;2022-09-24T09:56:06;3.58;;;1.92;;
55146;SDS011;41039;49.830;23.988;2022-09-24T09:58:35;5.53;;;2.40;;
55146;SDS011;41039;49.830;23.988;2022-09-24T10:01:02;4.75;;;2.22;;
55146;SDS011;41039;49.830;23.988;2022-09-24T10:03:29;8.75;;;2.65;;
55146;SDS011;41039;49.830;23.988;2022-09-24T10:05:56;3.20;;;1.73;;
55146;SDS011;41039;49.830;23.988;2022-09-24T10:08:22;3.25;;;1.75;;
55146;SDS011;41039;49.830;23.988;2022-09-24T10:10:55;4.22;;;1.77;;
55146;SDS011;41039;49.830;23.988;2022-09-24T10:13:20;5.72;;;2.13;;
55146;SDS011;41039;49.830;23.988;2022-09-24T10:18:24;4.40;;;1.90;;
55146;SDS011;41039;49.830;23.988;2022-09-24T10:20:52;3.35;;;1.85;;
55146;SDS011;41039;49.830;23.988;2022-09-24T10:23:22;5.40;;;3.15;;
55146;SDS011;41039;49.830;23.988;2022-09-24T10:25:49;3.00;;;1.90;;
55146;SDS011;41039;49.830;23.988;2022-09-24T10:28:16;6.72;;;1.92;;
55146;SDS011;41039;49.830;23.988;2022-09-24T10:31:06;2.83;;;1.90;;
55146;SDS011;41039;49.830;23.988;2022-09-24T10:33:35;3.13;;;1.80;;
55146;SDS011;41039;49.830;23.988;2022-09-24T10:36:04;2.90;;;1.58;;
55146;SDS011;41039;49.830;23.988;2022-09-24T10:38:31;3.38;;;1.70;;
55146;SDS011;41039;49.830;23.988;2022-09-24T10:40:56;4.13;;;2.08;;
55146;SDS011;41039;49.830;23.988;2022-09-24T10:43:22;4.10;;;1.80;;
55146;SDS011;41039;49.830;23.988;2022-09-24T10:56:36;3.53;;;1.90;;
55146;SDS011;41039;49.830;23.988;2022-09-24T11:04:21;1.98;;;1.05;;
55146;SDS011;41039;49.830;23.988;2022-09-24T11:07:36;2.40;;;1.50;;
55146;SDS011;41039;49.830;23.988;2022-09-24T11:12:14;2.10;;;1.20;;
55146;SDS011;41039;49.830;23.988;2022-09-24T11:17:41;3.92;;;1.95;;
55146;SDS011;41039;49.830;23.988;2022-09-24T11:20:26;3.08;;;1.70;;
55146;SDS011;41039;49.830;23.988;2022-09-24T11:30:53;3.03;;;1.60;;
55146;SDS011;41039;49.830;23.988;2022-09-24T11:38:29;4.60;;;1.77;;
55146;SDS011;41039;49.830;23.988;2022-09-24T11:52:12;5.47;;;2.53;;
55146;SDS011;41039;49.830;23.988;2022-09-24T11:54:48;2.92;;;1.75;;
55146;SDS011;41039;49.830;23.988;2022-09-24T11:57:20;3.55;;;1.92;;
55146;SDS011;41039;49.830;23.988;2022-09-24T12:04:59;3.42;;;1.80;;
55146;SDS011;41039;49.830;23.988;2022-09-24T12:12:51;3.53;;;1.60;;
55146;SDS011;41039;49.830;23.988;2022-09-24T12:15:22;3.50;;;1.88;;
55146;SDS011;41039;49.830;23.988;2022-09-24T12:17:53;4.43;;;1.70;;
55146;SDS011;41039;49.830;23.988;2022-09-24T12:20:28;5.75;;;3.05;;
55146;SDS011;41039;49.830;23.988;2022-09-24T12:23:04;3.80;;;2.00;;
55146;SDS011;41039;49.830;23.988;2022-09-24T12:25:37;2.42;;;1.45;;
55146;SDS011;41039;49.830;23.988;2022-09-24T12:28:04;5.97;;;2.60;;
55146;SDS011;41039;49.830;23.988;2022-09-24T12:38:37;4.45;;;2.00;;
55146;SDS011;41039;49.830;23.988;2022-09-24T12:46:00;4.13;;;2.20;;
55146;SDS011;41039;49.830;23.988;2022-09-24T12:48:26;3.20;;;1.67;;
55146;SDS011;41039;49.830;23.988;2022-09-24T12:50:56;4.25;;;1.77;;
55146;SDS011;41039;49.830;23.988;2022-09-24T12:53:23;2.63;;;1.70;;
55146;SDS011;41039;49.830;23.988;2022-09-24T12:55:56;3.90;;;1.60;;
55146;SDS011;41039;49.830;23.988;2022-09-24T12:58:43;8.02;;;2.10;;
55146;SDS011;41039;49.830;23.988;2022-09-24T13:03:34;3.25;;;2.00;;
55146;SDS011;41039;49.830;23.988;2022-09-24T13:06:00;5.15;;;3.17;;
55146;SDS011;41039;49.830;23.988;2022-09-24T13:08:27;6.47;;;3.92;;
55146;SDS011;41039;49.830;23.988;2022-09-24T13:10:59;7.38;;;2.95;;
55146;SDS011;41039;49.830;23.988;2022-09-24T13:13:29;5.43;;;3.03;;
55146;SDS011;41039;49.830;23.988;2022-09-24T13:16:00;6.32;;;2.90;;
55146;SDS011;41039;49.830;23.988;2022-09-24T13:18:26;3.28;;;2.45;;
55146;SDS011;41039;49.830;23.988;2022-09-24T13:21:05;8.05;;;3.40;;
55146;SDS011;41039;49.830;23.988;2022-09-24T13:26:06;5.20;;;2.10;;
55146;SDS011;41039;49.830;23.988;2022-09-24T13:28:36;4.45;;;2.40;;
55146;SDS011;41039;49.830;23.988;2022-09-24T13:31:48;4.75;;;2.00;;
55146;SDS011;41039;49.830;23.988;2022-09-24T13:33:48;4.47;;;2.03;;
55146;SDS011;41039;49.830;23.988;2022-09-24T13:38:54;5.45;;;2.40;;
55146;SDS011;41039;49.830;23.988;2022-09-24T13:44:10;6.75;;;2.65;;
55146;SDS011;41039;49.830;23.988;2022-09-24T13:46:34;6.70;;;3.08;;
55146;SDS011;41039;49.830;23.988;2022-09-24T13:49:01;3.55;;;2.30;;
55146;SDS011;41039;49.830;23.988;2022-09-24T13:51:30;3.83;;;2.38;;
55146;SDS011;41039;49.830;23.988;2022-09-24T13:54:02;4.13;;;2.50;;
55146;SDS011;41039;49.830;23.988;2022-09-24T13:56:29;3.67;;;2.50;;
55146;SDS011;41039;49.830;23.988;2022-09-24T13:59:01;4.15;;;2.47;;
55146;SDS011;41039;49.830;23.988;2022-09-24T14:01:28;4.20;;;2.70;;
55146;SDS011;41039;49.830;23.988;2022-09-24T14:04:17;4.35;;;2.40;;
55146;SDS011;41039;49.830;23.988;2022-09-24T14:06:41;4.32;;;2.90;;
55146;SDS011;41039;49.830;23.988;2022-09-24T14:09:59;4.13;;;2.65;;
55146;SDS011;41039;49.830;23.988;2022-09-24T14:11:57;6.00;;;2.90;;
55146;SDS011;41039;49.830;23.988;2022-09-24T14:14:24;5.03;;;3.60;;
55146;SDS011;41039;49.830;23.988;2022-09-24T14:16:50;4.05;;;2.70;;
55146;SDS011;41039;49.830;23.988;2022-09-24T14:19:19;3.80;;;2.63;;
55146;SDS011;41039;49.830;23.988;2022-09-24T14:26:48;4.50;;;3.13;;
55146;SDS011;41039;49.830;23.988;2022-09-24T14:29:16;2.88;;;1.98;;
55146;SDS011;41039;49.830;23.988;2022-09-24T14:31:49;4.47;;;2.88;;
55146;SDS011;41039;49.830;23.988;2022-09-24T14:34:36;4.47;;;1.95;;
55146;SDS011;41039;49.830;23.988;2022-09-24T14:37:07;3.88;;;2.08;;
55146;SDS011;41039;49.830;23.988;2022-09-24T14:39:35;3.55;;;2.05;;
55146;SDS011;41039;49.830;23.988;2022-09-24T14:42:06;5.35;;;2.80;;
55146;SDS011;41039;49.830;23.988;2022-09-24T14:44:33;3.42;;;2.42;;
55146;SDS011;41039;49.830;23.988;2022-09-24T14:46:58;6.10;;;2.78;;
55146;SDS011;41039;49.830;23.988;2022-09-24T14:49:28;4.57;;;2.42;;
55146;SDS011;41039;49.830;23.988;2022-09-24T14:51:57;4.75;;;2.50;;
55146;SDS011;41039;49.830;23.988;2022-09-24T14:54:36;4.97;;;2.80;;
55146;SDS011;41039;49.830;23.988;2022-09-24T14:59:35;3.13;;;2.03;;
55146;SDS011;41039;49.830;23.988;2022-09-24T15:04:34;4.25;;;2.28;;
55146;SDS011;41039;49.830;23.988;2022-09-24T15:07:01;4.60;;;2.63;;
55146;SDS011;41039;49.830;23.988;2022-09-24T15:09:27;3.40;;;2.45;;
55146;SDS011;41039;49.830;23.988;2022-09-24T15:11:53;6.78;;;4.13;;
55146;SDS011;41039;49.830;23.988;2022-09-24T15:14:22;5.18;;;3.10;;
55146;SDS011;41039;49.830;23.988;2022-09-24T15:16:51;6.00;;;3.65;;
55146;SDS011;41039;49.830;23.988;2022-09-24T15:19:21;7.88;;;4.70;;
55146;SDS011;41039;49.830;23.988;2022-09-24T15:21:47;7.07;;;4.65;;
55146;SDS011;41039;49.830;23.988;2022-09-24T15:24:14;8.70;;;5.13;;
55146;SDS011;41039;49.830;23.988;2022-09-24T15:26:41;4.82;;;3.47;;
55146;SDS011;41039;49.830;23.988;2022-09-24T15:29:06;6.47;;;4.38;;
55146;SDS011;41039;49.830;23.988;2022-09-24T15:31:32;7.07;;;4.70;;
55146;SDS011;41039;49.830;23.988;2022-09-24T15:33:57;10.02;;;5.47;;
55146;SDS011;41039;49.830;23.988;2022-09-24T15:36:22;7.80;;;5.05;;
55146;SDS011;41039;49.830;23.988;2022-09-24T15:38:48;9.10;;;5.10;;
55146;SDS011;41039;49.830;23.988;2022-09-24T15:41:15;8.68;;;4.97;;
55146;SDS011;41039;49.830;23.988;2022-09-24T15:43:40;8.77;;;4.65;;
55146;SDS011;41039;49.830;23.988;2022-09-24T15:46:05;10.10;;;5.47;;
55146;SDS011;41039;49.830;23.988;2022-09-24T15:48:31;8.88;;;5.72;;
55146;SDS011;41039;49.830;23.988;2022-09-24T15:50:56;12.68;;;6.63;;
55146;SDS011;41039;49.830;23.988;2022-09-24T15:53:23;10.57;;;6.13;;
55146;SDS011;41039;49.830;23.988;2022-09-24T15:55:51;9.65;;;5.90;;
55146;SDS011;41039;49.830;23.988;2022-09-24T15:58:16;8.63;;;5.85;;
55146;SDS011;41039;49.830;23.988;2022-09-24T16:00:42;9.93;;;7.47;;
55146;SDS011;41039;49.830;23.988;2022-09-24T16:03:08;13.82;;;7.00;;
55146;SDS011;41039;49.830;23.988;2022-09-24T16:05:37;11.95;;;6.60;;
55146;SDS011;41039;49.830;23.988;2022-09-24T16:08:03;10.20;;;6.65;;
55146;SDS011;41039;49.830;23.988;2022-09-24T16:10:28;8.60;;;5.50;;
55146;SDS011;41039;49.830;23.988;2022-09-24T16:12:53;10.20;;;5.47;;
55146;SDS011;41039;49.830;23.988;2022-09-24T16:15:19;12.10;;;6.88;;
55146;SDS011;41039;49.830;23.988;2022-09-24T16:17:46;13.05;;;7.68;;
55146;SDS011;41039;49.830;23.988;2022-09-24T16:20:13;19.52;;;13.00;;
55146;SDS011;41039;49.830;23.988;2022-09-24T16:22:39;17.00;;;8.52;;
55146;SDS011;41039;49.830;23.988;2022-09-24T16:25:04;17.17;;;7.70;;
55146;SDS011;41039;49.830;23.988;2022-09-24T16:27:29;18.17;;;7.68;;
55146;SDS011;41039;49.830;23.988;2022-09-24T16:29:55;12.32;;;6.72;;
55146;SDS011;41039;49.830;23.988;2022-09-24T16:32:20;18.77;;;7.93;;
55146;SDS011;41039;49.830;23.988;2022-09-24T16:34:45;15.27;;;7.28;;
55146;SDS011;41039;49.830;23.988;2022-09-24T16:37:11;18.58;;;9.05;;
55146;SDS011;41039;49.830;23.988;2022-09-24T16:39:38;18.98;;;9.23;;
55146;SDS011;41039;49.830;23.988;2022-09-24T16:42:04;15.85;;;8.18;;
55146;SDS011;41039;49.830;23.988;2022-09-24T16:44:29;17.27;;;8.70;;
55146;SDS011;41039;49.830;23.988;2022-09-24T16:46:54;15.07;;;9.20;;
55146;SDS011;41039;49.830;23.988;2022-09-24T16:49:21;17.10;;;9.98;;
55146;SDS011;41039;49.830;23.988;2022-09-24T16:51:46;17.38;;;10.98;;
55146;SDS011;41039;49.830;23.988;2022-09-24T16:54:11;16.88;;;11.27;;
55146;SDS011;41039;49.830;23.988;2022-09-24T16:56:37;19.33;;;11.05;;
55146;SDS011;41039;49.830;23.988;2022-09-24T16:59:03;15.05;;;10.57;;
55146;SDS011;41039;49.830;23.988;2022-09-24T17:01:28;15.73;;;9.55;;
55146;SDS011;41039;49.830;23.988;2022-09-24T17:03:54;17.90;;;11.32;;
55146;SDS011;41039;49.830;23.988;2022-09-24T17:06:20;19.73;;;11.93;;